Terminal Aerodrome Forecast
Issued by NWS

Home | Current Version | Previous Version | Text Only | Print | Product List | Glossary On
Versions: 1 2 3 4 5 6 7 8 9 10 11 12
000
FTUS46 KSEW 070545
TAFPAE
TAF
KPAE 070545Z 0706/0806 01007KT P6SM OVC200
     FM071200 VRB05KT P6SM SCT009 OVC200
     FM071400 17005KT 5SM BR OVC006
     FM071800 27006KT P6SM OVC200
     FM080000 33005KT P6SM OVC200=

USA.gov is the U.S. government's official web portal to all federal, state and local government web resources and services.